createdAt,value
2018-03-15T00:01:21.511Z,14.53
2018-03-15T00:03:50.354Z,15.33
2018-03-15T00:06:19.221Z,13.60
2018-03-15T00:08:48.090Z,15.97
2018-03-15T00:11:16.975Z,17.43
2018-03-15T00:13:46.796Z,16.90
2018-03-15T00:16:15.638Z,16.37
2018-03-15T00:18:44.521Z,14.87
2018-03-15T00:21:13.447Z,15.83
2018-03-15T00:23:42.285Z,18.07
2018-03-15T00:26:11.137Z,15.53
2018-03-15T00:28:40.357Z,23.70
2018-03-15T00:31:09.191Z,18.33
2018-03-15T00:33:38.031Z,18.70
2018-03-15T00:36:06.905Z,18.03
2018-03-15T00:38:35.767Z,18.53
2018-03-15T00:41:05.583Z,21.20
2018-03-15T00:43:41.437Z,21.40
2018-03-15T00:46:10.323Z,19.73
2018-03-15T00:48:39.195Z,22.77
2018-03-15T00:51:08.039Z,21.57
2018-03-15T00:53:36.894Z,18.27
2018-03-15T00:56:07.709Z,19.67
2018-03-15T00:58:36.559Z,21.20
2018-03-15T01:01:05.399Z,15.80
2018-03-15T01:03:34.267Z,13.83
2018-03-15T01:06:03.145Z,18.00
2018-03-15T01:08:31.977Z,13.50
2018-03-15T01:11:00.845Z,21.43
2018-03-15T01:13:29.692Z,24.17
2018-03-15T01:15:59.159Z,20.30
2018-03-15T01:18:28.087Z,21.83
2018-03-15T01:20:56.893Z,13.80
2018-03-15T01:23:25.737Z,20.53
2018-03-15T01:25:54.611Z,21.97
2018-03-15T01:28:23.466Z,24.17
2018-03-15T01:30:52.345Z,24.00
2018-03-15T01:33:21.191Z,10.73
2018-03-15T01:35:50.033Z,23.13
2018-03-15T01:38:19.439Z,19.73
2018-03-15T01:40:48.349Z,19.57
2018-03-15T01:43:17.189Z,22.10
2018-03-15T01:45:46.053Z,18.83
2018-03-15T01:48:14.886Z,16.60
2018-03-15T01:50:43.727Z,17.67
2018-03-15T01:53:13.187Z,21.63
2018-03-15T01:55:42.025Z,20.00
2018-03-15T01:58:11.272Z,23.03
2018-03-15T02:00:40.175Z,17.37
2018-03-15T02:03:09.027Z,18.00
2018-03-15T02:05:37.855Z,19.17
2018-03-15T02:08:06.736Z,19.43
2018-03-15T02:10:36.376Z,20.93
2018-03-15T02:13:05.220Z,21.20
2018-03-15T02:15:34.122Z,17.40
2018-03-15T02:18:03.270Z,18.63
2018-03-15T02:20:32.121Z,21.87
2018-03-15T02:23:01.034Z,18.67
2018-03-15T02:25:29.875Z,21.60
2018-03-15T02:27:58.716Z,21.33
2018-03-15T02:30:27.592Z,19.30
2018-03-15T02:32:56.431Z,20.30
2018-03-15T02:35:25.296Z,14.77
2018-03-15T02:37:54.192Z,20.53
2018-03-15T02:40:23.042Z,15.30
2018-03-15T02:42:51.886Z,22.97
2018-03-15T02:45:20.752Z,20.63
2018-03-15T02:47:49.592Z,17.90
2018-03-15T02:50:18.827Z,15.07
2018-03-15T02:52:47.692Z,17.67
2018-03-15T02:55:16.542Z,16.37
2018-03-15T02:57:45.386Z,14.53
2018-03-15T03:00:14.296Z,18.27
2018-03-15T03:02:43.150Z,16.20
2018-03-15T03:05:11.991Z,17.37
2018-03-15T03:07:40.912Z,17.50
2018-03-15T03:10:09.754Z,19.63
2018-03-15T03:12:39.564Z,16.63
2018-03-15T03:15:08.420Z,18.70
2018-03-15T03:17:37.256Z,16.63
2018-03-15T03:20:06.096Z,15.90
2018-03-15T03:22:34.981Z,16.00
2018-03-15T03:25:03.830Z,19.20
2018-03-15T03:27:32.760Z,20.13
2018-03-15T03:30:01.625Z,20.17
2018-03-15T03:32:30.473Z,17.67
2018-03-15T03:35:00.266Z,19.00
2018-03-15T03:37:29.140Z,14.37
2018-03-15T03:39:58.009Z,16.90
2018-03-15T03:42:27.400Z,20.17
2018-03-15T03:44:56.264Z,21.10
2018-03-15T03:47:25.110Z,20.37
2018-03-15T03:49:53.960Z,17.80
2018-03-15T03:52:22.828Z,18.37
2018-03-15T03:54:51.669Z,19.40
2018-03-15T03:57:20.508Z,17.73
2018-03-15T03:59:49.374Z,19.33
2018-03-15T04:02:18.218Z,16.03
2018-03-15T04:04:47.092Z,20.70
2018-03-15T04:07:16.642Z,17.20
2018-03-15T04:09:45.480Z,20.33
2018-03-15T04:12:14.361Z,14.20
2018-03-15T04:14:43.216Z,19.83
2018-03-15T04:17:12.726Z,19.87
2018-03-15T04:19:41.573Z,15.40
2018-03-15T04:22:10.644Z,18.63
2018-03-15T04:24:39.496Z,18.40
2018-03-15T04:27:08.952Z,21.57
2018-03-15T04:29:37.806Z,19.50
2018-03-15T04:32:06.647Z,17.70
2018-03-15T04:34:35.508Z,19.40
2018-03-15T04:37:04.431Z,18.90
2018-03-15T04:39:33.268Z,19.67
2018-03-15T04:42:02.134Z,18.70
2018-03-15T04:44:30.996Z,18.90
2018-03-15T04:46:59.840Z,20.30
2018-03-15T04:49:31.064Z,22.00
2018-03-15T04:52:00.312Z,19.47
2018-03-15T04:54:29.240Z,23.33
2018-03-15T04:57:00.126Z,20.57
2018-03-15T04:59:30.180Z,19.77
2018-03-15T05:01:59.662Z,18.10
2018-03-15T05:04:29.124Z,18.27
2018-03-15T05:06:57.960Z,18.70
2018-03-15T05:09:26.820Z,17.03
2018-03-15T05:11:55.652Z,16.47
2018-03-15T05:14:24.488Z,21.77
2018-03-15T05:16:53.703Z,14.50
2018-03-15T05:19:22.562Z,18.70
2018-03-15T05:21:52.330Z,18.20
2018-03-15T05:24:21.198Z,18.77
2018-03-15T05:26:50.057Z,17.33
2018-03-15T05:29:18.942Z,18.23
2018-03-15T05:31:47.796Z,20.17
2018-03-15T05:34:16.636Z,16.93
2018-03-15T05:36:45.486Z,18.70
2018-03-15T05:39:14.376Z,16.83
2018-03-15T05:41:43.238Z,17.70
2018-03-15T05:44:12.107Z,17.93
2018-03-15T05:46:40.968Z,18.10
2018-03-15T05:49:11.144Z,17.00
2018-03-15T05:51:40.027Z,16.40
2018-03-15T05:54:09.411Z,18.93
2018-03-15T05:56:38.269Z,22.10
2018-03-15T05:59:07.108Z,18.60
2018-03-15T06:01:35.964Z,17.43
2018-03-15T06:04:04.816Z,16.93
2018-03-15T06:06:33.656Z,20.70
2018-03-15T06:09:02.544Z,12.57
2018-03-15T06:11:31.470Z,16.20
2018-03-15T06:14:00.390Z,17.50
2018-03-15T06:16:29.268Z,20.90
2018-03-15T06:18:58.108Z,17.97
2018-03-15T06:21:28.280Z,14.93
2018-03-15T06:23:57.514Z,14.00
2018-03-15T06:26:26.424Z,20.13
2018-03-15T06:28:55.329Z,17.10
2018-03-15T06:31:29.532Z,16.30
2018-03-15T06:33:58.435Z,17.37
2018-03-15T06:43:59.095Z,15.90
2018-03-15T06:46:28.070Z,13.37
2018-03-15T06:51:33.920Z,23.73
2018-03-15T06:54:02.776Z,19.90
2018-03-15T06:56:32.841Z,17.53
2018-03-15T06:59:01.678Z,20.27
2018-03-15T07:01:31.108Z,19.30
2018-03-15T07:03:59.966Z,15.57
2018-03-15T07:06:29.520Z,18.47
2018-03-15T07:08:58.449Z,18.40
2018-03-15T07:11:27.298Z,16.10
2018-03-15T07:13:56.718Z,17.10
2018-03-15T07:16:25.590Z,18.40
2018-03-15T07:18:54.428Z,16.23
2018-03-15T07:21:23.278Z,17.23
2018-03-15T07:23:52.245Z,17.70
2018-03-15T07:26:21.848Z,15.40
2018-03-15T07:28:52.586Z,20.27
2018-03-15T07:31:21.444Z,17.57
2018-03-15T07:33:50.296Z,17.33
2018-03-15T07:36:19.144Z,18.80
2018-03-15T07:38:48.482Z,17.60
2018-03-15T07:41:18.348Z,16.87
2018-03-15T07:43:47.210Z,14.83
2018-03-15T07:46:16.072Z,19.27
2018-03-15T07:48:44.939Z,18.40
2018-03-15T07:51:13.784Z,17.93
2018-03-15T07:53:42.651Z,14.87
2018-03-15T07:56:11.581Z,20.47
2018-03-15T07:58:40.442Z,17.90
2018-03-15T08:01:10.116Z,19.40
2018-03-15T08:03:39.365Z,19.77
2018-03-15T08:06:08.208Z,17.80
2018-03-15T08:08:37.089Z,19.50
2018-03-15T08:11:05.951Z,18.30
2018-03-15T08:13:35.108Z,18.20
2018-03-15T08:16:04.055Z,18.20
2018-03-15T08:18:32.920Z,18.93
2018-03-15T08:21:02.037Z,15.73
2018-03-15T08:23:31.039Z,18.17
2018-03-15T08:25:59.895Z,16.83
2018-03-15T08:28:29.707Z,17.00
2018-03-15T08:30:58.589Z,18.20
2018-03-15T08:33:27.429Z,19.13
2018-03-15T08:35:56.304Z,16.93
2018-03-15T08:38:25.168Z,18.30
2018-03-15T08:40:54.036Z,16.37
2018-03-15T08:43:23.369Z,18.00
2018-03-15T08:45:52.249Z,18.83
2018-03-15T08:48:21.103Z,17.17
2018-03-15T08:50:49.967Z,21.50
2018-03-15T08:53:18.819Z,17.37
2018-03-15T08:55:47.675Z,15.73
2018-03-15T08:58:16.552Z,16.20
2018-03-15T09:00:46.291Z,12.37
2018-03-15T09:03:15.146Z,18.37
2018-03-15T09:05:44.611Z,16.43
2018-03-15T09:08:13.477Z,19.37
2018-03-15T09:10:42.331Z,16.50
2018-03-15T09:13:11.173Z,18.90
2018-03-15T09:15:40.415Z,16.63
2018-03-15T09:18:11.539Z,16.73
2018-03-15T09:20:40.450Z,15.70
2018-03-15T09:23:09.360Z,17.53
2018-03-15T09:25:38.999Z,18.53
2018-03-15T09:28:09.403Z,15.30
2018-03-15T09:30:38.251Z,16.80
2018-03-15T09:33:07.153Z,14.60
2018-03-15T09:35:36.039Z,13.80
2018-03-15T09:38:04.897Z,16.30
2018-03-15T09:40:33.826Z,17.00
2018-03-15T09:43:02.687Z,16.13
2018-03-15T09:45:31.563Z,19.97
2018-03-15T09:48:00.405Z,13.27
2018-03-15T09:50:30.613Z,18.70
2018-03-15T09:52:59.489Z,16.00
2018-03-15T09:55:28.663Z,18.83
2018-03-15T09:57:57.553Z,17.80
2018-03-15T10:00:26.468Z,16.53
2018-03-15T10:02:55.337Z,18.37
2018-03-15T10:05:24.235Z,19.83
2018-03-15T10:07:53.119Z,14.47
2018-03-15T10:10:21.971Z,15.87
2018-03-15T10:12:51.469Z,18.53
2018-03-15T10:15:20.363Z,18.27
2018-03-15T10:17:50.179Z,17.23
2018-03-15T10:20:19.162Z,18.57
2018-03-15T10:22:48.289Z,17.53
2018-03-15T10:25:26.395Z,18.13
2018-03-15T10:27:46.189Z,17.87
2018-03-15T10:30:15.063Z,18.63
2018-03-15T10:32:43.927Z,18.83
2018-03-15T10:35:18.675Z,19.53
2018-03-15T10:37:47.532Z,17.73
2018-03-15T10:40:16.414Z,18.77
2018-03-15T10:42:45.289Z,19.37
2018-03-15T10:45:14.162Z,18.43
2018-03-15T10:47:43.035Z,18.00
2018-03-15T10:50:11.925Z,18.73
2018-03-15T10:52:40.790Z,17.97
2018-03-15T10:55:10.796Z,19.73
2018-03-15T10:57:40.251Z,18.93
2018-03-15T11:00:09.117Z,18.80
2018-03-15T11:02:43.735Z,17.60
2018-03-15T11:05:18.268Z,19.43
2018-03-15T11:07:52.861Z,19.50
2018-03-15T11:10:22.103Z,18.27
2018-03-15T11:12:50.958Z,19.00
2018-03-15T11:15:19.979Z,18.33
2018-03-15T11:17:50.240Z,16.30
2018-03-15T11:20:20.065Z,17.90
2018-03-15T11:22:48.999Z,18.83
2018-03-15T11:25:18.089Z,19.83
2018-03-15T11:27:46.939Z,16.37
2018-03-15T11:30:15.822Z,21.27
2018-03-15T11:32:44.696Z,18.23
2018-03-15T11:35:13.560Z,19.43
2018-03-15T11:37:42.442Z,19.83
2018-03-15T11:40:11.883Z,21.13
2018-03-15T11:42:40.848Z,20.83
2018-03-15T11:45:11.118Z,18.20
2018-03-15T11:47:39.971Z,17.10
2018-03-15T11:50:09.792Z,17.83
2018-03-15T11:52:38.656Z,18.07
2018-03-15T11:55:09.305Z,16.10
2018-03-15T11:57:38.171Z,18.23
2018-03-15T12:00:07.060Z,20.50
2018-03-15T12:02:35.923Z,20.33
2018-03-15T12:05:04.793Z,18.90
2018-03-15T12:07:33.664Z,18.13
2018-03-15T12:10:02.570Z,17.07
2018-03-15T12:12:31.502Z,19.40
2018-03-15T12:15:00.351Z,16.10
2018-03-15T12:17:30.453Z,17.03
2018-03-15T12:19:59.313Z,20.53
2018-03-15T12:22:28.534Z,14.23
2018-03-15T12:24:57.401Z,17.43
2018-03-15T12:27:26.260Z,17.53
2018-03-15T12:29:55.128Z,20.53
2018-03-15T12:32:23.972Z,16.50
2018-03-15T12:34:52.915Z,17.23
2018-03-15T12:37:21.764Z,16.63
2018-03-15T12:39:50.609Z,16.80
2018-03-15T12:42:19.488Z,16.67
2018-03-15T12:44:48.333Z,17.23
2018-03-15T12:47:17.176Z,16.87
2018-03-15T12:49:46.038Z,16.53
2018-03-15T12:52:14.904Z,17.00
2018-03-15T12:54:43.766Z,18.40
2018-03-15T12:57:13.389Z,18.63
2018-03-15T12:59:42.994Z,16.23
2018-03-15T13:02:11.856Z,16.53
2018-03-15T13:04:40.695Z,14.27
2018-03-15T13:07:09.551Z,15.00
2018-03-15T13:09:38.451Z,18.20
2018-03-15T13:12:07.299Z,22.37
2018-03-15T13:14:36.146Z,19.20
2018-03-15T13:17:05.011Z,17.03
2018-03-15T13:19:33.860Z,18.23
2018-03-15T13:22:02.711Z,18.77
2018-03-15T13:24:32.556Z,16.97
2018-03-15T13:27:01.482Z,17.10
2018-03-15T13:29:30.331Z,21.67
2018-03-15T13:31:59.226Z,17.37
2018-03-15T13:34:28.414Z,17.77
2018-03-15T13:36:57.259Z,17.30
2018-03-15T13:39:26.128Z,16.53
2018-03-15T13:41:54.964Z,17.47
2018-03-15T13:44:23.834Z,16.87
2018-03-15T13:46:52.704Z,16.63
2018-03-15T13:49:21.553Z,16.60
2018-03-15T13:51:51.040Z,16.97
2018-03-15T13:54:19.938Z,18.07
2018-03-15T13:56:49.690Z,18.57
2018-03-15T13:59:18.549Z,17.20
2018-03-15T14:01:48.096Z,16.67
2018-03-15T14:04:16.955Z,19.13
2018-03-15T14:06:45.816Z,18.37
2018-03-15T14:09:14.736Z,15.77
2018-03-15T14:11:50.473Z,17.17
2018-03-15T14:14:19.350Z,18.57
2018-03-15T14:16:48.203Z,17.37
2018-03-15T14:19:17.621Z,19.33
2018-03-15T14:21:46.542Z,15.40
2018-03-15T14:24:15.507Z,15.47
2018-03-15T14:26:44.441Z,16.93
2018-03-15T14:29:13.329Z,15.73
2018-03-15T14:31:42.220Z,14.80
2018-03-15T14:34:11.077Z,17.10
2018-03-15T14:36:39.962Z,18.03
2018-03-15T14:39:09.759Z,16.03
2018-03-15T14:41:38.974Z,15.47
2018-03-15T14:44:07.836Z,13.83
2018-03-15T14:46:36.956Z,17.47
2018-03-15T14:49:05.836Z,18.43
2018-03-15T14:51:34.738Z,16.70
2018-03-15T14:54:04.454Z,15.00
2018-03-15T14:56:34.193Z,15.33
2018-03-15T14:59:03.220Z,19.00
2018-03-15T15:01:33.416Z,14.40
2018-03-15T15:04:04.996Z,15.30
2018-03-15T15:06:34.540Z,16.37
2018-03-15T15:09:04.364Z,15.90
2018-03-15T15:11:33.826Z,14.13
2018-03-15T15:14:03.020Z,17.33
2018-03-15T15:16:31.888Z,14.80
2018-03-15T15:19:02.394Z,15.27
2018-03-15T15:21:31.243Z,17.53
2018-03-15T15:24:00.090Z,17.57
2018-03-15T15:26:29.512Z,16.83
2018-03-15T15:28:58.358Z,15.13
2018-03-15T15:31:27.217Z,18.90
2018-03-15T15:33:56.758Z,17.47
2018-03-15T15:36:25.595Z,19.63
2018-03-15T15:38:54.446Z,18.47
2018-03-15T15:41:24.163Z,17.10
2018-03-15T15:43:53.006Z,16.70
2018-03-15T15:46:21.862Z,17.43
2018-03-15T15:48:52.033Z,17.17
2018-03-15T15:51:20.966Z,15.80
2018-03-15T15:53:51.226Z,14.10
2018-03-15T15:56:20.100Z,16.43
2018-03-15T15:58:49.738Z,17.73
2018-03-15T16:01:19.097Z,19.83
2018-03-15T16:03:49.179Z,20.30
2018-03-15T16:06:18.062Z,19.67
2018-03-15T16:08:46.908Z,17.63
2018-03-15T16:11:15.760Z,20.60
2018-03-15T16:13:45.412Z,19.97
2018-03-15T16:16:15.556Z,18.87
2018-03-15T16:18:46.055Z,18.40
2018-03-15T16:21:15.695Z,19.47
2018-03-15T16:23:45.452Z,18.10
2018-03-15T16:26:15.732Z,18.90
2018-03-15T16:28:44.636Z,16.97
2018-03-15T16:31:13.548Z,18.33
2018-03-15T16:33:42.375Z,18.27
2018-03-15T16:36:11.238Z,18.20
2018-03-15T16:38:40.110Z,17.77
2018-03-15T16:41:09.630Z,21.23
2018-03-15T16:43:38.531Z,17.60
2018-03-15T16:46:07.848Z,18.10
2018-03-15T16:48:36.741Z,18.37
2018-03-15T16:51:05.631Z,17.00
2018-03-15T16:53:34.469Z,18.50
2018-03-15T16:56:07.145Z,20.87
2018-03-15T16:58:37.590Z,19.40
2018-03-15T17:01:06.961Z,18.10
2018-03-15T17:03:36.524Z,17.90
2018-03-15T17:06:05.384Z,20.60
2018-03-15T17:08:35.076Z,19.50
2018-03-15T17:11:06.797Z,20.10
2018-03-15T17:13:37.108Z,19.23
2018-03-15T17:16:05.956Z,22.07
2018-03-15T17:18:34.828Z,19.93
2018-03-15T17:21:06.796Z,20.67
2018-03-15T17:23:38.980Z,20.40
2018-03-15T17:26:08.293Z,21.30
2018-03-15T17:28:37.680Z,19.03
2018-03-15T17:31:06.604Z,22.20
2018-03-15T17:33:35.474Z,24.23
2018-03-15T17:36:04.432Z,22.50
2018-03-15T17:38:34.510Z,18.87
2018-03-15T17:41:03.371Z,20.10
2018-03-15T17:43:32.228Z,20.20
2018-03-15T17:46:01.084Z,23.57
2018-03-15T17:48:29.944Z,18.03
2018-03-15T17:50:59.488Z,22.00
2018-03-15T17:53:28.329Z,18.53
2018-03-15T17:55:57.210Z,19.10
2018-03-15T17:58:26.129Z,23.87
2018-03-15T18:00:54.965Z,16.93
2018-03-15T18:03:23.827Z,22.67
2018-03-15T18:05:52.714Z,19.90
2018-03-15T18:08:21.583Z,22.83
2018-03-15T18:10:50.696Z,24.73
2018-03-15T18:13:19.553Z,19.50
2018-03-15T18:15:48.460Z,20.43
2018-03-15T18:18:17.366Z,20.30
2018-03-15T18:20:46.264Z,20.03
2018-03-15T18:23:15.222Z,14.03
2018-03-15T18:25:44.107Z,19.37
2018-03-15T18:28:12.960Z,16.03
2018-03-15T18:30:41.797Z,17.20
2018-03-15T18:33:11.539Z,17.50
2018-03-15T18:35:40.383Z,10.63
2018-03-15T18:38:09.247Z,15.67
2018-03-15T18:40:38.115Z,15.90
2018-03-15T18:43:07.352Z,18.60
2018-03-15T18:45:36.206Z,16.57
2018-03-15T18:48:05.175Z,17.53
2018-03-15T18:50:34.012Z,15.93
2018-03-15T18:53:02.912Z,19.23
2018-03-15T18:55:31.810Z,18.80
2018-03-15T18:58:00.670Z,19.30
2018-03-15T19:00:31.078Z,18.73
2018-03-15T19:02:59.946Z,16.27
2018-03-15T19:05:29.108Z,21.10
2018-03-15T19:07:57.954Z,20.13
2018-03-15T19:10:26.839Z,19.83
2018-03-15T19:12:55.766Z,19.87
2018-03-15T19:15:24.652Z,21.20
2018-03-15T19:17:54.286Z,20.63
2018-03-15T19:20:25.083Z,18.90
2018-03-15T19:22:54.100Z,21.13
2018-03-15T19:25:22.986Z,21.07
2018-03-15T19:27:52.053Z,19.20
2018-03-15T19:30:20.931Z,21.90
2018-03-15T19:32:49.791Z,24.10
2018-03-15T19:35:18.709Z,21.77
2018-03-15T19:37:47.710Z,21.27
2018-03-15T19:40:16.517Z,23.97
2018-03-15T19:42:45.471Z,25.27
2018-03-15T19:45:14.345Z,24.37
2018-03-15T19:47:43.314Z,22.50
2018-03-15T19:50:12.904Z,23.47
2018-03-15T19:52:42.429Z,24.27
2018-03-15T19:55:11.494Z,22.90
2018-03-15T19:57:40.399Z,22.57
2018-03-15T20:00:09.996Z,22.80
2018-03-15T20:02:38.857Z,24.30
2018-03-15T20:05:07.775Z,25.40
2018-03-15T20:07:36.991Z,21.37
2018-03-15T20:10:05.857Z,23.73
2018-03-15T20:12:34.699Z,24.97
2018-03-15T20:15:04.463Z,27.17
2018-03-15T20:17:34.049Z,23.43
2018-03-15T20:20:03.199Z,24.43
2018-03-15T20:22:38.705Z,23.60
2018-03-15T20:25:07.596Z,26.10
2018-03-15T20:27:42.181Z,22.77
2018-03-15T20:30:12.217Z,22.63
2018-03-15T20:32:46.953Z,25.50
2018-03-15T20:35:16.133Z,24.93
2018-03-15T20:37:45.107Z,25.03
2018-03-15T20:45:44.014Z,19.70
2018-03-15T20:48:18.648Z,23.33
2018-03-15T20:50:47.551Z,24.23
2018-03-15T20:53:16.443Z,29.23
2018-03-15T20:55:45.286Z,26.30
2018-03-15T20:58:14.265Z,28.23
2018-03-15T21:00:43.120Z,26.83
2018-03-15T21:03:11.960Z,29.43
2018-03-15T21:05:41.296Z,24.80
2018-03-15T21:08:10.385Z,25.27
2018-03-15T21:10:39.237Z,24.13
2018-03-15T21:13:08.668Z,24.43
2018-03-15T21:15:37.511Z,28.70
2018-03-15T21:18:06.386Z,28.93
2018-03-15T21:20:35.633Z,29.30
2018-03-15T21:23:04.522Z,27.00
2018-03-15T21:25:33.384Z,25.27
2018-03-15T21:28:02.277Z,32.27
2018-03-15T21:30:31.141Z,31.63
2018-03-15T21:33:00.014Z,28.90
2018-03-15T21:35:29.895Z,29.30
2018-03-15T21:37:58.738Z,28.77
2018-03-15T21:40:27.664Z,28.47
2018-03-15T21:42:56.551Z,31.13
2018-03-15T21:45:25.409Z,33.57
2018-03-15T21:47:54.249Z,30.57
2018-03-15T21:50:23.146Z,30.47
2018-03-15T21:52:51.988Z,31.67
2018-03-15T21:55:20.865Z,30.33
2018-03-15T21:57:50.025Z,34.20
2018-03-15T22:00:19.063Z,32.00
2018-03-15T22:02:48.034Z,30.43
2018-03-15T22:05:17.041Z,32.13
2018-03-15T22:07:46.090Z,33.97
2018-03-15T22:10:15.033Z,30.97
2018-03-15T22:12:49.897Z,31.10
2018-03-15T22:15:20.161Z,31.93
2018-03-15T22:17:49.569Z,34.27
2018-03-15T22:20:18.689Z,35.63
2018-03-15T22:22:47.745Z,35.07
2018-03-15T22:25:16.610Z,31.80
2018-03-15T22:27:54.438Z,33.07
2018-03-15T22:30:23.500Z,31.10
2018-03-15T22:32:53.242Z,32.57
2018-03-15T22:35:22.136Z,34.23
2018-03-15T22:37:51.663Z,35.23
2018-03-15T22:40:20.648Z,36.53
2018-03-15T22:42:50.143Z,36.93
2018-03-15T22:45:21.235Z,37.20
2018-03-15T22:47:50.089Z,33.10
2018-03-15T22:50:18.963Z,38.37
2018-03-15T22:52:47.896Z,34.57
2018-03-15T22:55:16.775Z,37.27
2018-03-15T22:57:45.611Z,36.67
2018-03-15T23:00:14.526Z,35.90
2018-03-15T23:02:43.979Z,40.63
2018-03-15T23:05:12.869Z,34.40
2018-03-15T23:07:41.758Z,34.87
2018-03-15T23:10:10.614Z,36.07
2018-03-15T23:12:39.461Z,37.43
2018-03-15T23:15:08.318Z,39.27
2018-03-15T23:17:37.180Z,36.43
2018-03-15T23:23:11.886Z,38.30
2018-03-15T23:25:40.762Z,39.80
2018-03-15T23:28:09.672Z,41.33
2018-03-15T23:30:54.284Z,42.87
2018-03-15T23:36:03.292Z,39.63
2018-03-15T23:38:33.593Z,39.63
2018-03-15T23:41:02.459Z,38.73
2018-03-15T23:43:31.435Z,41.57
2018-03-15T23:46:00.276Z,40.53
2018-03-15T23:48:29.109Z,38.00
2018-03-15T23:50:57.985Z,36.17
2018-03-15T23:53:26.833Z,42.00
2018-03-15T23:55:55.676Z,38.07
2018-03-15T23:58:24.563Z,39.03
